Time;durP1;ratioP1;P1;durP2;ratioP2;P2;SDS_P1;SDS_P2;PMS_P1;PMS_P2;Temp;Humidity;BMP_temperature;BMP_pressure;BME280_temperature;BME280_humidity;BME280_pressure;Samples;Min_cycle;Max_cycle;Signal;HPM_P1;HPM_P2
2021/11/22 00:01:06;;;;;;;;;;;;;;;17.43;55.49;100110.13;5031907;28;19924;-40
2021/11/22 00:03:32;;;;;;;;;;;;;;;17.43;55.31;100112.81;5032060;28;20488;-43
2021/11/22 00:05:57;;;;;;;;;;;;;;;17.42;55.41;100109.28;5013956;28;19917;-41
2021/11/22 00:08:23;;;;;;;;;;;;;;;17.42;55.31;100103.91;5032172;28;19976;-41
2021/11/22 00:10:48;;;;;;;;;;;;;;;17.42;55.17;100108.41;5031236;28;20416;-42
2021/11/22 00:13:14;;;;;;;;;;;;;;;17.42;55.00;100101.22;5031920;28;19913;-43
2021/11/22 00:15:39;;;;;;;;;;;;;;;17.42;55.43;100101.22;5032187;28;19928;-44
2021/11/22 00:18:05;;;;;;;;;;;;;;;17.43;54.94;100104.75;5032186;28;19913;-42
2021/11/22 00:20:31;;;;;;;;;;;;;;;17.42;55.03;100098.53;5031761;28;20373;-46
2021/11/22 00:22:56;;;;;;;;;;;;;;;17.43;55.31;100094.84;5031739;28;19924;-43
2021/11/22 00:25:21;;;;;;;;;;;;;;;17.43;55.16;100099.38;5031896;28;19917;-41
2021/11/22 00:27:47;;;;;;;;;;;;;;;17.43;55.20;100094.00;5017831;28;19913;-42
2021/11/22 00:30:14;;;;;;;;;;;;;;;17.42;55.32;100092.28;5035165;28;19929;-42
2021/11/22 00:32:41;;;;;;;;;;;;;;;17.42;55.15;100092.28;5035121;28;19924;-43
2021/11/22 00:35:07;;;;;;;;;;;;;;;17.42;54.77;100085.09;5035651;28;19917;-43
2021/11/22 00:37:35;;;;;;;;;;;;;;;17.42;55.01;100082.41;5035607;28;19993;-42
2021/11/22 00:40:01;;;;;;;;;;;;;;;17.42;55.07;100082.41;5035113;28;20434;-42
2021/11/22 00:42:26;;;;;;;;;;;;;;;17.40;55.32;100079.00;5035380;28;19960;-46
2021/11/22 00:44:52;;;;;;;;;;;;;;;17.40;55.31;100089.75;5035555;28;19990;-42
2021/11/22 00:47:17;;;;;;;;;;;;;;;17.41;55.19;100086.06;5035106;28;19917;-42
2021/11/22 00:49:42;;;;;;;;;;;;;;;17.41;55.25;100086.06;5017521;28;19968;-41
2021/11/22 00:52:08;;;;;;;;;;;;;;;17.39;55.17;100081.78;5035129;28;20393;-42
2021/11/22 00:54:34;;;;;;;;;;;;;;;17.40;54.96;100089.75;5035240;28;20289;-42
2021/11/22 00:56:59;;;;;;;;;;;;;;;17.39;54.98;100079.94;5034726;28;19925;-41
2021/11/22 00:59:25;;;;;;;;;;;;;;;17.40;55.25;100083.47;5035109;28;19917;-43
2021/11/22 01:01:50;;;;;;;;;;;;;;;17.40;55.23;100084.38;5034858;28;19921;-41
2021/11/22 01:04:19;;;;;;;;;;;;;;;17.40;55.04;100081.69;5035265;28;19967;-43
2021/11/22 01:06:45;;;;;;;;;;;;;;;17.41;54.90;100079.84;5034801;28;19920;-43
2021/11/22 01:09:11;;;;;;;;;;;;;;;17.40;55.14;100075.44;5015397;28;19921;-43
2021/11/22 01:11:37;;;;;;;;;;;;;;;17.40;55.14;100072.75;5031395;28;19956;-43
2021/11/22 01:14:03;;;;;;;;;;;;;;;17.39;55.06;100077.25;5034764;28;19920;-41
2021/11/22 01:16:30;;;;;;;;;;;;;;;17.37;54.91;100073.84;5035010;28;20000;-44
2021/11/22 01:18:55;;;;;;;;;;;;;;;17.38;54.99;100077.41;5034078;28;19913;-43
2021/11/22 01:21:21;;;;;;;;;;;;;;;17.38;55.17;100070.19;5034709;28;19970;-42
2021/11/22 01:23:46;;;;;;;;;;;;;;;17.39;55.12;100065.66;5034403;28;20285;-44
2021/11/22 01:26:11;;;;;;;;;;;;;;;17.37;55.16;100071.16;5034781;28;20282;-41
2021/11/22 01:28:36;;;;;;;;;;;;;;;17.38;55.14;100069.34;5034114;28;20358;-42
2021/11/22 01:31:02;;;;;;;;;;;;;;;17.38;54.85;100069.34;5034078;28;19921;-43
2021/11/22 01:33:27;;;;;;;;;;;;;;;17.38;54.90;100070.19;5034446;28;19913;-45
2021/11/22 01:35:52;;;;;;;;;;;;;;;17.37;54.89;100071.16;5034440;28;19913;-45
2021/11/22 01:38:18;;;;;;;;;;;;;;;17.38;55.31;100075.56;5024984;28;19920;-41
2021/11/22 01:40:44;;;;;;;;;;;;;;;17.36;55.22;100069.47;5031477;28;20401;-42
2021/11/22 01:43:14;;;;;;;;;;;;;;;17.37;55.04;100073.00;5034435;28;20329;-44
2021/11/22 01:45:39;;;;;;;;;;;;;;;17.36;55.01;100076.66;5034603;28;19920;-43
2021/11/22 01:48:05;;;;;;;;;;;;;;;17.37;54.87;100075.69;5033145;28;19913;-43
2021/11/22 01:50:30;;;;;;;;;;;;;;;17.37;55.02;100078.38;5033959;28;19979;-41
2021/11/22 01:52:56;;;;;;;;;;;;;;;17.35;54.96;100075.78;5034290;28;20386;-43
2021/11/22 01:55:23;;;;;;;;;;;;;;;17.36;54.83;100069.47;5034266;28;19913;-43
2021/11/22 01:57:49;;;;;;;;;;;;;;;17.36;54.88;100069.47;5033298;28;19928;-41
2021/11/22 02:00:34;;;;;;;;;;;;;;;17.35;55.04;100075.78;5033687;28;19924;-40
2021/11/22 02:03:01;;;;;;;;;;;;;;;17.35;55.16;100075.78;5033673;28;19917;-41
2021/11/22 02:05:26;;;;;;;;;;;;;;;17.34;54.81;100068.72;5016897;28;19917;-41
2021/11/22 02:07:51;;;;;;;;;;;;;;;17.35;54.97;100073.09;5018388;28;19921;-43
2021/11/22 02:10:17;;;;;;;;;;;;;;;17.35;55.20;100077.63;5029720;28;20402;-40
2021/11/22 02:12:43;;;;;;;;;;;;;;;17.34;55.10;100066.03;5029384;28;20015;-40
2021/11/22 02:15:10;;;;;;;;;;;;;;;17.35;54.93;100075.78;5033628;28;20404;-40
2021/11/22 02:17:38;;;;;;;;;;;;;;;17.34;55.08;100073.25;5033241;28;20014;-40
2021/11/22 02:20:06;;;;;;;;;;;;;;;17.34;54.96;100074.09;5033904;28;19913;-40
2021/11/22 02:22:32;;;;;;;;;;;;;;;17.33;54.90;100072.38;5033589;28;19921;-40
2021/11/22 02:24:58;;;;;;;;;;;;;;;17.34;55.29;100075.94;5033346;28;20008;-42
2021/11/22 02:27:24;;;;;;;;;;;;;;;17.33;55.37;100071.53;5033069;28;19914;-41
2021/11/22 02:29:49;;;;;;;;;;;;;;;17.34;55.28;100063.34;5033248;28;19947;-40
2021/11/22 02:32:14;;;;;;;;;;;;;;;17.33;55.12;100066.16;5022096;28;19924;-41
2021/11/22 02:34:40;;;;;;;;;;;;;;;17.35;54.97;100072.25;5013644;28;19913;-45
2021/11/22 02:37:06;;;;;;;;;;;;;;;17.36;55.14;100060.53;5024550;28;19970;-45
2021/11/22 02:39:32;;;;;;;;;;;;;;;17.34;54.81;100057.13;5033145;28;19921;-43
2021/11/22 02:41:57;;;;;;;;;;;;;;;17.33;55.18;100058.97;5033614;28;19917;-43
2021/11/22 02:44:22;;;;;;;;;;;;;;;17.33;55.31;100061.66;5033760;28;20062;-42
2021/11/22 02:46:48;;;;;;;;;;;;;;;17.32;55.29;100049.16;5027154;28;19921;-46
2021/11/22 02:49:13;;;;;;;;;;;;;;;17.33;55.06;100055.41;5014277;28;19921;-41
2021/11/22 02:51:39;;;;;;;;;;;;;;;17.33;55.15;100058.09;5033058;28;19913;-45
2021/11/22 02:54:04;;;;;;;;;;;;;;;17.32;55.28;100059.91;5033131;28;20004;-41
2021/11/22 02:56:31;;;;;;;;;;;;;;;17.32;55.12;100053.69;5032277;28;19984;-41
2021/11/22 02:58:57;;;;;;;;;;;;;;;17.32;54.85;100048.31;5015166;28;19917;-42
2021/11/22 03:01:22;;;;;;;;;;;;;;;17.33;54.99;100050.03;5032554;28;19921;-42
2021/11/22 03:03:48;;;;;;;;;;;;;;;17.31;55.05;100050.16;5032700;28;19967;-42
2021/11/22 03:06:14;;;;;;;;;;;;;;;17.32;55.28;100051.00;5021166;28;19963;-42
2021/11/22 03:08:40;;;;;;;;;;;;;;;17.30;55.39;100048.44;5032618;28;19914;-43
2021/11/22 03:11:06;;;;;;;;;;;;;;;17.30;55.31;100053.81;5032790;28;19918;-41
2021/11/22 03:13:32;;;;;;;;;;;;;;;17.30;55.29;100051.13;5032514;28;20297;-41
2021/11/22 03:15:57;;;;;;;;;;;;;;;17.30;55.13;100048.44;5029484;28;19917;-43
2021/11/22 03:18:22;;;;;;;;;;;;;;;17.30;55.37;100045.75;5028064;28;19917;-42
2021/11/22 03:20:48;;;;;;;;;;;;;;;17.30;54.79;100054.66;5032839;28;19967;-41
2021/11/22 03:23:13;;;;;;;;;;;;;;;17.30;55.07;100049.28;5031662;28;20385;-41
2021/11/22 03:25:38;;;;;;;;;;;;;;;17.30;55.20;100043.94;5020916;28;19918;-42
2021/11/22 03:28:04;;;;;;;;;;;;;;;17.30;54.98;100041.25;5012819;28;19918;-43
2021/11/22 03:30:29;;;;;;;;;;;;;;;17.29;55.28;100044.06;5011335;28;19925;-46
2021/11/22 03:32:54;;;;;;;;;;;;;;;17.30;54.99;100043.06;5024547;28;19916;-43
2021/11/22 03:35:20;;;;;;;;;;;;;;;17.30;55.34;100040.38;5031667;28;19917;-41
2021/11/22 03:37:46;;;;;;;;;;;;;;;17.30;55.42;100045.75;5032388;28;19967;-42
2021/11/22 03:40:12;;;;;;;;;;;;;;;17.29;55.10;100038.69;5032436;28;19913;-42
2021/11/22 03:42:50;;;;;;;;;;;;;;;17.30;55.06;100043.06;5031675;28;19923;-41
2021/11/22 03:45:16;;;;;;;;;;;;;;;17.28;55.17;100043.22;5032597;28;19999;-41
2021/11/22 03:47:41;;;;;;;;;;;;;;;17.30;55.01;100040.38;5031602;28;20396;-44
2021/11/22 03:50:07;;;;;;;;;;;;;;;17.28;55.23;100043.22;5031774;28;19925;-41
2021/11/22 03:52:32;;;;;;;;;;;;;;;17.30;55.06;100045.75;5025149;28;20350;-41
2021/11/22 03:54:58;;;;;;;;;;;;;;;17.28;55.26;100047.69;5012521;28;19913;-41
2021/11/22 03:57:26;;;;;;;;;;;;;;;17.28;55.57;100037.84;5014045;28;19921;-42
2021/11/22 03:59:52;;;;;;;;;;;;;;;17.28;55.35;100036.94;5032283;28;19913;-42
2021/11/22 04:02:17;;;;;;;;;;;;;;;17.28;55.03;100032.47;5027437;28;19924;-43
2021/11/22 04:04:42;;;;;;;;;;;;;;;17.28;55.21;100039.63;5012347;28;19925;-43
2021/11/22 04:07:08;;;;;;;;;;;;;;;17.29;55.33;100044.06;5012363;28;19913;-42
2021/11/22 04:09:35;;;;;;;;;;;;;;;17.28;55.29;100036.94;5030301;28;20364;-41
2021/11/22 04:12:00;;;;;;;;;;;;;;;17.29;55.33;100041.38;5031761;28;19917;-43
2021/11/22 04:14:25;;;;;;;;;;;;;;;17.28;55.30;100043.22;5032143;28;20059;-42
2021/11/22 04:16:51;;;;;;;;;;;;;;;17.30;55.37;100043.06;5031268;28;19970;-42
2021/11/22 04:19:16;;;;;;;;;;;;;;;17.27;55.11;100049.53;5032021;28;19917;-42
2021/11/22 04:21:42;;;;;;;;;;;;;;;17.29;55.25;100054.81;5030461;28;19913;-43
2021/11/22 04:24:08;;;;;;;;;;;;;;;17.28;54.99;100056.63;5011059;28;19913;-45
2021/11/22 04:26:33;;;;;;;;;;;;;;;17.28;55.34;100063.81;5011934;28;20703;-41
2021/11/22 04:28:59;;;;;;;;;;;;;;;17.28;55.11;100061.13;5025464;28;20451;-43
2021/11/22 04:31:25;;;;;;;;;;;;;;;17.26;55.25;100050.53;5031791;28;19913;-43
2021/11/22 04:33:50;;;;;;;;;;;;;;;17.27;54.96;100051.38;5030646;28;20305;-43
2021/11/22 04:36:15;;;;;;;;;;;;;;;17.26;55.13;100049.66;5031733;28;20278;-42
2021/11/22 04:38:41;;;;;;;;;;;;;;;17.27;55.39;100046.00;5031569;28;20393;-41
2021/11/22 04:41:07;;;;;;;;;;;;;;;17.26;55.30;100049.66;5014085;28;19963;-41
2021/11/22 04:43:32;;;;;;;;;;;;;;;17.26;55.31;100049.66;5013286;28;19921;-44
2021/11/22 04:45:58;;;;;;;;;;;;;;;17.25;54.99;100056.03;5011963;28;19913;-42
2021/11/22 04:48:23;;;;;;;;;;;;;;;17.28;55.05;100063.81;5013495;28;19975;-42
2021/11/22 04:50:48;;;;;;;;;;;;;;;17.27;55.29;100054.91;5031914;28;19917;-42
2021/11/22 04:53:14;;;;;;;;;;;;;;;17.25;55.20;100061.41;5031058;28;20384;-41
2021/11/22 04:55:39;;;;;;;;;;;;;;;17.25;55.41;100056.03;5031578;28;19917;-41
2021/11/22 04:58:05;;;;;;;;;;;;;;;17.26;55.29;100057.72;5031192;28;19928;-42
2021/11/22 05:00:31;;;;;;;;;;;;;;;17.26;55.09;100057.72;5031357;28;19994;-42
2021/11/22 05:02:56;;;;;;;;;;;;;;;17.26;55.16;100065.78;5030944;28;20431;-41
2021/11/22 05:05:22;;;;;;;;;;;;;;;17.25;55.12;100064.09;5031588;28;20072;-41
2021/11/22 05:07:48;;;;;;;;;;;;;;;17.24;55.04;100067.72;5031254;28;20011;-41
2021/11/22 05:10:13;;;;;;;;;;;;;;;17.25;55.07;100074.81;5031515;28;20067;-41
2021/11/22 05:12:38;;;;;;;;;;;;;;;17.25;55.01;100080.19;5030976;28;19971;-45
2021/11/22 05:15:05;;;;;;;;;;;;;;;17.23;55.23;100082.13;5035191;28;19959;-41
2021/11/22 05:17:30;;;;;;;;;;;;;;;17.23;54.94;100082.97;5024107;28;19917;-42
2021/11/22 05:19:55;;;;;;;;;;;;;;;17.23;55.19;100076.75;5035076;28;19920;-41
2021/11/22 05:22:21;;;;;;;;;;;;;;;17.23;55.22;100071.38;5013370;28;19932;-42
2021/11/22 05:24:50;;;;;;;;;;;;;;;17.23;55.39;100066.00;5015048;28;20404;-43
2021/11/22 05:27:19;;;;;;;;;;;;;;;17.22;55.13;100072.38;5014822;28;19920;-46
2021/11/22 05:29:45;;;;;;;;;;;;;;;17.22;55.48;100072.38;5033517;28;20007;-42
2021/11/22 05:32:11;;;;;;;;;;;;;;;17.22;55.18;100075.91;5033957;28;20412;-41
2021/11/22 05:34:37;;;;;;;;;;;;;;;17.23;55.16;100074.06;5034471;28;19913;-41
2021/11/22 05:37:03;;;;;;;;;;;;;;;17.21;55.13;100073.34;5034382;28;19917;-41
2021/11/22 05:39:28;;;;;;;;;;;;;;;17.21;55.13;100073.34;5034673;28;19913;-42
2021/11/22 05:41:55;;;;;;;;;;;;;;;17.22;55.19;100070.53;5013049;28;19921;-41
2021/11/22 05:44:21;;;;;;;;;;;;;;;17.21;55.58;100074.22;5022683;28;19917;-41
2021/11/22 05:46:49;;;;;;;;;;;;;;;17.21;55.23;100073.34;5023160;28;19974;-45
2021/11/22 05:49:15;;;;;;;;;;;;;;;17.21;55.38;100078.72;5034213;28;19970;-41
2021/11/22 05:51:40;;;;;;;;;;;;;;;17.21;55.13;100081.41;5033253;28;19921;-41
2021/11/22 05:54:05;;;;;;;;;;;;;;;17.22;55.55;100078.59;5034126;28;19913;-41
2021/11/22 05:56:31;;;;;;;;;;;;;;;17.21;55.40;100079.56;5034045;28;19921;-42
2021/11/22 05:58:56;;;;;;;;;;;;;;;17.19;55.37;100083.34;5034222;28;19913;-41
2021/11/22 06:01:22;;;;;;;;;;;;;;;17.21;55.17;100078.72;5031985;28;19917;-41
2021/11/22 06:03:47;;;;;;;;;;;;;;;17.20;55.60;100085.06;5030336;28;19937;-43
2021/11/22 06:06:13;;;;;;;;;;;;;;;17.19;55.24;100080.66;5014401;28;19918;-41
2021/11/22 06:08:39;;;;;;;;;;;;;;;17.21;55.52;100081.41;5014218;28;19921;-41
2021/11/22 06:11:04;;;;;;;;;;;;;;;17.21;55.24;100073.34;5019113;28;19922;-41
2021/11/22 06:13:29;;;;;;;;;;;;;;;17.21;55.57;100078.72;5028717;28;19924;-42
2021/11/22 06:15:55;;;;;;;;;;;;;;;17.20;55.33;100080.53;5032803;28;19917;-41
2021/11/22 06:18:20;;;;;;;;;;;;;;;17.19;55.45;100076.13;5013957;28;19917;-41
2021/11/22 06:20:46;;;;;;;;;;;;;;;17.20;55.10;100077.00;5015158;28;20004;-41
2021/11/22 06:23:12;;;;;;;;;;;;;;;17.21;55.44;100078.72;5029803;28;19917;-41
2021/11/22 06:25:37;;;;;;;;;;;;;;;17.17;55.28;100082.59;5033747;28;19913;-41
2021/11/22 06:28:03;;;;;;;;;;;;;;;17.19;55.48;100083.34;5033604;28;19917;-41
2021/11/22 06:30:29;;;;;;;;;;;;;;;17.17;55.62;100088.84;5032788;28;19924;-41
2021/11/22 06:32:55;;;;;;;;;;;;;;;17.17;55.42;100090.66;5032936;28;20491;-41
2021/11/22 06:35:21;;;;;;;;;;;;;;;17.16;55.50;100097.00;5033294;28;19913;-41
2021/11/22 06:37:46;;;;;;;;;;;;;;;17.17;55.28;100099.59;5033704;28;19984;-41
2021/11/22 06:40:12;;;;;;;;;;;;;;;17.17;55.53;100109.44;5034079;28;19920;-44
2021/11/22 06:42:38;;;;;;;;;;;;;;;17.16;55.25;100100.53;5031083;28;20289;-41
2021/11/22 06:45:07;;;;;;;;;;;;;;;17.18;55.44;100101.28;5033315;28;19924;-41
2021/11/22 06:47:33;;;;;;;;;;;;;;;17.18;55.54;100097.75;5028903;28;19917;-42
2021/11/22 06:49:59;;;;;;;;;;;;;;;17.17;55.56;100098.72;5016916;28;19921;-43
2021/11/22 06:52:24;;;;;;;;;;;;;;;17.17;55.75;100106.75;5033477;28;20031;-41
2021/11/22 06:54:50;;;;;;;;;;;;;;;17.16;55.62;100105.06;5033196;28;19913;-42
2021/11/22 06:57:17;;;;;;;;;;;;;;;17.17;55.25;100112.13;5033621;28;19928;-41
2021/11/22 06:59:43;;;;;;;;;;;;;;;17.16;55.40;100113.13;5032360;28;19956;-42
2021/11/22 07:02:12;;;;;;;;;;;;;;;17.16;55.30;100123.88;5033232;28;19920;-42
2021/11/22 07:04:38;;;;;;;;;;;;;;;17.16;55.33;100131.91;5033091;28;19960;-42
2021/11/22 07:07:03;;;;;;;;;;;;;;;17.15;55.40;100138.28;5013116;28;19953;-44
2021/11/22 07:09:29;;;;;;;;;;;;;;;17.16;55.77;100142.66;5021684;28;19963;-41
2021/11/22 07:11:54;;;;;;;;;;;;;;;17.15;55.54;100146.34;5029790;28;19924;-43
2021/11/22 07:14:19;;;;;;;;;;;;;;;17.15;55.41;100151.69;5022330;28;19940;-43
2021/11/22 07:16:45;;;;;;;;;;;;;;;17.17;55.55;100147.94;5029194;28;19970;-42
2021/11/22 07:19:10;;;;;;;;;;;;;;;17.16;55.59;100148.88;5024631;28;19975;-41
2021/11/22 07:21:35;;;;;;;;;;;;;;;17.16;55.63;100156.09;5016678;28;20004;-42
2021/11/22 07:24:01;;;;;;;;;;;;;;;17.14;55.47;100158.91;5018346;28;19924;-41
2021/11/22 07:26:26;;;;;;;;;;;;;;;17.14;55.49;100158.91;5013380;28;19917;-43
2021/11/22 07:28:51;;;;;;;;;;;;;;;17.15;55.44;100154.38;5029093;28;19917;-41
2021/11/22 07:31:17;;;;;;;;;;;;;;;17.16;55.30;100162.31;5025665;28;19921;-41
2021/11/22 07:33:42;;;;;;;;;;;;;;;17.14;55.61;100164.28;5032376;28;20401;-41
2021/11/22 07:36:07;;;;;;;;;;;;;;;17.13;55.70;100165.22;5031497;28;20385;-40
2021/11/22 07:38:35;;;;;;;;;;;;;;;17.15;55.61;100167.81;5029707;28;19921;-42
2021/11/22 07:41:00;;;;;;;;;;;;;;;17.16;55.48;100167.69;5027751;28;19999;-42
2021/11/22 07:43:25;;;;;;;;;;;;;;;17.17;55.53;100173.91;5032111;28;19960;-41
2021/11/22 07:45:51;;;;;;;;;;;;;;;17.14;55.41;100174.16;5029842;28;20393;-41
2021/11/22 07:48:16;;;;;;;;;;;;;;;17.14;55.31;100174.16;5021999;28;20398;-42
2021/11/22 07:50:42;;;;;;;;;;;;;;;17.14;55.43;100168.78;5031286;28;20400;-41
2021/11/22 07:53:07;;;;;;;;;;;;;;;17.15;55.48;100178.56;5026028;28;19967;-41
2021/11/22 07:55:32;;;;;;;;;;;;;;;17.14;55.61;100179.53;5015229;28;19921;-41
2021/11/22 07:57:58;;;;;;;;;;;;;;;17.14;55.34;100183.06;5032582;28;19952;-41
2021/11/22 08:00:24;;;;;;;;;;;;;;;17.15;55.29;100202.72;5030780;28;19947;-41
2021/11/22 08:02:49;;;;;;;;;;;;;;;17.13;55.39;100204.66;5019119;28;19918;-41
2021/11/22 08:05:15;;;;;;;;;;;;;;;17.15;55.63;100208.09;5010450;28;19996;-42
2021/11/22 08:07:42;;;;;;;;;;;;;;;17.13;55.88;100208.19;5021851;28;19923;-42
2021/11/22 08:12:48;;;;;;;;;;;;;;;17.14;55.42;100212.63;5021036;28;19921;-42
2021/11/22 08:15:13;;;;;;;;;;;;;;;17.12;55.32;100213.69;5012240;28;20348;-41
2021/11/22 08:17:40;;;;;;;;;;;;;;;17.13;55.67;100218.09;5014007;28;19917;-42
2021/11/22 08:20:09;;;;;;;;;;;;;;;17.12;55.45;100219.06;5029917;28;19917;-43
2021/11/22 08:22:34;;;;;;;;;;;;;;;17.12;55.79;100217.22;5030001;28;20451;-41
2021/11/22 08:24:59;;;;;;;;;;;;;;;17.13;55.55;100220.78;5013234;28;20052;-43
2021/11/22 08:27:28;;;;;;;;;;;;;;;17.12;55.73;100229.81;5031727;28;20335;-41
2021/11/22 08:29:53;;;;;;;;;;;;;;;17.12;55.37;100224.44;5024492;28;20024;-43
2021/11/22 08:32:20;;;;;;;;;;;;;;;17.11;55.79;100231.66;5023119;28;20381;-41
2021/11/22 08:34:45;;;;;;;;;;;;;;;17.12;55.58;100224.44;5015517;28;20327;-41
2021/11/22 08:37:11;;;;;;;;;;;;;;;17.11;55.45;100238.84;5008222;28;20457;-42
2021/11/22 08:39:36;;;;;;;;;;;;;;;17.11;55.54;100238.84;5020089;28;20011;-41
2021/11/22 08:42:02;;;;;;;;;;;;;;;17.12;55.66;100246.78;5007816;28;19921;-44
2021/11/22 08:44:28;;;;;;;;;;;;;;;17.10;55.65;100253.25;5021605;28;19924;-45
2021/11/22 08:46:53;;;;;;;;;;;;;;;17.09;55.62;100247.00;5024638;28;19921;-41
2021/11/22 08:49:19;;;;;;;;;;;;;;;17.09;55.64;100252.38;5032334;28;20364;-41
2021/11/22 08:51:45;;;;;;;;;;;;;;;17.09;55.80;100263.13;5031346;28;19963;-40
2021/11/22 08:54:10;;;;;;;;;;;;;;;17.07;55.70;100257.00;5028162;28;19925;-40
2021/11/22 08:56:36;;;;;;;;;;;;;;;17.08;55.28;100263.25;5024328;28;19928;-43
2021/11/22 08:59:01;;;;;;;;;;;;;;;17.05;55.49;100262.47;5020493;28;20011;-43
2021/11/22 09:01:27;;;;;;;;;;;;;;;17.07;55.55;100265.06;5032656;28;19913;-42
2021/11/22 09:03:54;;;;;;;;;;;;;;;17.05;55.68;100270.53;5032737;28;19924;-40
2021/11/22 09:06:19;;;;;;;;;;;;;;;17.04;55.54;100271.50;5032642;28;19913;-39
2021/11/22 09:08:45;;;;;;;;;;;;;;;17.05;55.77;100278.59;5032203;28;19923;-41
2021/11/22 09:11:11;;;;;;;;;;;;;;;17.04;55.51;100279.56;5031019;28;19975;-40
2021/11/22 09:13:36;;;;;;;;;;;;;;;17.04;55.74;100282.25;5033030;28;20328;-40
2021/11/22 09:16:02;;;;;;;;;;;;;;;17.04;55.75;100281.41;5034392;28;19920;-40
2021/11/22 09:18:27;;;;;;;;;;;;;;;17.03;55.66;100285.06;5035049;28;19935;-40
2021/11/22 09:20:53;;;;;;;;;;;;;;;17.02;55.57;100286.91;5034608;28;20417;-41
2021/11/22 09:23:18;;;;;;;;;;;;;;;17.02;55.87;100275.31;5034464;28;19925;-45
2021/11/22 09:25:43;;;;;;;;;;;;;;;17.02;55.83;100281.53;5015297;28;19928;-42
2021/11/22 09:28:10;;;;;;;;;;;;;;;17.01;55.78;100285.16;5034097;28;20027;-42
2021/11/22 09:30:35;;;;;;;;;;;;;;;17.02;55.76;100278.84;5034028;28;19932;-45
2021/11/22 09:33:01;;;;;;;;;;;;;;;17.02;55.50;100288.72;5034382;28;19913;-42
2021/11/22 09:35:27;;;;;;;;;;;;;;;17.02;55.76;100289.59;5034608;28;19913;-40
2021/11/22 09:37:53;;;;;;;;;;;;;;;17.01;55.49;100293.22;5033902;28;19917;-42
2021/11/22 09:40:18;;;;;;;;;;;;;;;17.02;55.67;100305.69;5034312;28;19919;-40
2021/11/22 09:42:43;;;;;;;;;;;;;;;17.02;55.44;100312.91;5012377;28;20007;-42
2021/11/22 09:45:11;;;;;;;;;;;;;;;17.01;55.51;100314.69;5033275;28;19923;-44
2021/11/22 09:47:37;;;;;;;;;;;;;;;17.02;55.45;100308.38;5033988;28;19967;-44
2021/11/22 09:50:03;;;;;;;;;;;;;;;17.01;55.30;100314.69;5016096;28;19921;-41
2021/11/22 09:52:28;;;;;;;;;;;;;;;17.00;55.48;100313.00;5033626;28;19917;-43
2021/11/22 09:54:55;;;;;;;;;;;;;;;17.00;55.81;100313.00;5053994;28;19924;-41
2021/11/22 09:57:20;;;;;;;;;;;;;;;17.01;55.68;100324.59;5043778;28;19928;-39
2021/11/22 09:59:46;;;;;;;;;;;;;;;17.00;55.50;100320.19;5032900;28;19917;-39
2021/11/22 10:02:11;;;;;;;;;;;;;;;17.01;55.63;100320.06;5033814;28;19920;-39
2021/11/22 10:04:37;;;;;;;;;;;;;;;17.00;55.52;100318.38;5033833;28;20015;-41
2021/11/22 10:07:05;;;;;;;;;;;;;;;17.00;55.41;100321.03;5042812;28;19913;-43
2021/11/22 10:09:30;;;;;;;;;;;;;;;16.99;55.29;100319.34;5033838;28;20016;-40
2021/11/22 10:11:56;;;;;;;;;;;;;;;17.00;55.45;100307.63;5015950;28;19913;-41
2021/11/22 10:14:25;;;;;;;;;;;;;;;17.01;55.38;100313.84;5013877;28;19914;-42
2021/11/22 10:16:51;;;;;;;;;;;;;;;16.99;55.51;100313.13;5015801;28;19940;-44
2021/11/22 10:19:18;;;;;;;;;;;;;;;17.00;55.44;100313.00;5033573;28;19913;-41
2021/11/22 10:21:43;;;;;;;;;;;;;;;17.00;55.73;100329.09;5032745;28;20398;-40
2021/11/22 10:24:10;;;;;;;;;;;;;;;17.00;55.55;100325.56;5032197;28;19992;-41
2021/11/22 10:26:38;;;;;;;;;;;;;;;16.98;55.54;100331.06;5027756;28;19987;-40
2021/11/22 10:29:03;;;;;;;;;;;;;;;16.97;55.76;100334.69;5031547;28;19916;-39
2021/11/22 10:31:29;;;;;;;;;;;;;;;16.99;55.53;100334.59;5031930;28;19920;-41
2021/11/22 10:33:57;;;;;;;;;;;;;;;16.98;55.44;100335.53;5031581;28;19913;-47
2021/11/22 10:36:23;;;;;;;;;;;;;;;16.98;55.38;100325.69;5032386;28;19912;-41
2021/11/22 10:38:53;;;;;;;;;;;;;;;16.98;55.73;100328.38;5032151;28;19999;-41
2021/11/22 10:41:20;;;;;;;;;;;;;;;16.98;55.27;100314.06;5024833;28;19963;-40
2021/11/22 10:43:51;;;;;;;;;;;;;;;16.98;55.41;100320.31;5010684;28;20662;-41
2021/11/22 10:46:47;;;;;;;;;;;;;;;16.96;55.79;100316.88;5021564;28;19916;-40
2021/11/22 10:49:15;;;;;;;;;;;;;;;16.97;55.63;100307.00;5028728;28;19917;-41
2021/11/22 10:51:45;;;;;;;;;;;;;;;16.96;55.33;100306.13;5019484;28;19939;-39
2021/11/22 10:54:11;;;;;;;;;;;;;;;16.96;55.51;100311.50;5027176;28;19921;-40
2021/11/22 10:56:38;;;;;;;;;;;;;;;16.96;55.33;100310.66;5032066;28;19921;-39
2021/11/22 10:59:07;;;;;;;;;;;;;;;16.96;55.55;100322.25;5032324;28;20266;-39
2021/11/22 11:01:43;;;;;;;;;;;;;;;16.97;55.50;100317.72;5019795;28;19923;-40
2021/11/22 11:04:13;;;;;;;;;;;;;;;16.95;55.65;100312.47;5027291;28;19916;-40
2021/11/22 11:06:38;;;;;;;;;;;;;;;16.96;55.40;100316.03;5029146;28;19967;-40
2021/11/22 11:09:05;;;;;;;;;;;;;;;16.97;55.40;100317.72;5031962;28;19936;-42
2021/11/22 11:11:30;;;;;;;;;;;;;;;16.94;55.17;100318.84;5029909;28;19978;-40
2021/11/22 11:13:56;;;;;;;;;;;;;;;16.96;55.71;100310.66;5031408;28;20326;-40
2021/11/22 11:16:21;;;;;;;;;;;;;;;16.96;55.21;100316.03;5032095;28;20439;-40
2021/11/22 11:18:57;;;;;;;;;;;;;;;16.96;55.31;100316.03;5030186;28;19917;-40
2021/11/22 11:21:29;;;;;;;;;;;;;;;16.94;55.25;100312.56;5031785;28;20382;-41
2021/11/22 11:23:56;;;;;;;;;;;;;;;16.94;55.48;100302.72;5032408;28;19935;-40
2021/11/22 11:26:22;;;;;;;;;;;;;;;16.94;55.62;100308.09;5032391;28;19920;-40
2021/11/22 11:28:47;;;;;;;;;;;;;;;16.94;55.58;100302.72;5032154;28;20370;-41
2021/11/22 11:31:14;;;;;;;;;;;;;;;16.94;55.62;100302.72;5032229;28;19924;-40
2021/11/22 11:33:40;;;;;;;;;;;;;;;16.94;55.35;100302.72;5031461;28;20518;-41
2021/11/22 11:36:12;;;;;;;;;;;;;;;16.94;55.57;100302.72;5029511;28;19913;-41
2021/11/22 11:38:56;;;;;;;;;;;;;;;16.94;55.34;100302.72;5030208;28;20181;-43
2021/11/22 11:41:35;;;;;;;;;;;;;;;16.94;55.39;100302.72;5030268;28;19913;-39
2021/11/22 11:44:19;;;;;;;;;;;;;;;16.94;55.32;100305.41;5011664;28;19919;-42
2021/11/22 11:47:04;;;;;;;;;;;;;;;16.94;55.53;100291.09;5030423;28;19924;-41
2021/11/22 11:49:34;;;;;;;;;;;;;;;16.96;55.71;100294.53;5031308;28;19917;-41
2021/11/22 11:52:19;;;;;;;;;;;;;;;16.94;55.70;100294.66;5031960;28;19924;-41
2021/11/22 11:54:44;;;;;;;;;;;;;;;16.94;55.28;100293.78;5032043;28;19917;-42
2021/11/22 11:57:09;;;;;;;;;;;;;;;16.94;55.39;100297.34;5031696;28;19921;-40
2021/11/22 11:59:45;;;;;;;;;;;;;;;16.95;55.51;100298.19;5031881;28;20008;-43
2021/11/22 12:02:13;;;;;;;;;;;;;;;16.95;55.64;100299.06;5031901;28;19913;-41
2021/11/22 12:04:47;;;;;;;;;;;;;;;16.96;55.22;100291.84;5031732;28;20435;-40
2021/11/22 12:07:31;;;;;;;;;;;;;;;16.95;55.11;100287.47;5031868;28;19953;-41
2021/11/22 12:10:00;;;;;;;;;;;;;;;16.95;55.35;100293.69;5031692;28;20389;-41
2021/11/22 12:12:50;;;;;;;;;;;;;;;16.95;55.12;100284.78;5031770;28;19935;-41
2021/11/22 12:15:18;;;;;;;;;;;;;;;16.94;55.23;100288.41;5031801;28;20301;-40
2021/11/22 12:17:44;;;;;;;;;;;;;;;16.93;55.20;100279.50;5031698;28;19928;-42
2021/11/22 12:20:09;;;;;;;;;;;;;;;16.94;55.62;100275.88;5031644;28;19913;-40
2021/11/22 12:22:40;;;;;;;;;;;;;;;16.95;55.37;100279.41;5033463;28;19920;-44
2021/11/22 12:25:06;;;;;;;;;;;;;;;16.95;55.34;100284.78;5035755;28;19920;-44
2021/11/22 12:27:33;;;;;;;;;;;;;;;16.94;55.24;100281.25;5035592;28;19927;-43
2021/11/22 12:30:00;;;;;;;;;;;;;;;16.96;55.41;100284.66;5036063;28;20422;-41
2021/11/22 12:32:26;;;;;;;;;;;;;;;16.96;55.47;100284.66;5035808;28;20392;-41
2021/11/22 12:34:59;;;;;;;;;;;;;;;16.94;55.28;100281.25;5035360;28;19925;-42